Time;durP1;ratioP1;P1;durP2;ratioP2;P2;SDS_P1;SDS_P2;PMS_P1;PMS_P2;Temp;Humidity;BMP_temperature;BMP_pressure;BME280_temperature;BME280_humidity;BME280_pressure;Samples;Min_cycle;Max_cycle;Signal;HPM_P1;HPM_P2
2022/07/24 00:01:56;;;;;;;5.72;3.60;;;19.50;99.90;;;;;;5044002;28;20057;-63
2022/07/24 00:04:23;;;;;;;4.25;2.95;;;19.50;99.90;;;;;;5044256;28;20059;-63
2022/07/24 00:06:50;;;;;;;8.18;4.15;;;19.50;99.90;;;;;;5048833;28;20049;-62
2022/07/24 00:09:17;;;;;;;5.10;3.28;;;19.50;99.90;;;;;;5051446;28;20059;-62
2022/07/24 00:11:44;;;;;;;7.82;5.57;;;19.50;99.90;;;;;;5049258;28;20049;-63
2022/07/24 00:14:11;;;;;;;4.93;3.63;;;19.50;99.90;;;;;;5050559;28;20041;-62
2022/07/24 00:16:38;;;;;;;5.88;3.65;;;19.50;99.90;;;;;;5049808;28;20161;-69
2022/07/24 00:19:05;;;;;;;7.25;3.55;;;19.50;99.90;;;;;;5049915;28;20186;-62
2022/07/24 00:21:32;;;;;;;6.95;3.60;;;19.40;99.90;;;;;;5050551;28;20382;-62
2022/07/24 00:23:59;;;;;;;7.22;3.90;;;19.30;99.90;;;;;;5048661;28;20500;-63
2022/07/24 00:26:26;;;;;;;5.90;5.20;;;19.30;99.90;;;;;;5050173;28;20053;-63
2022/07/24 00:28:53;;;;;;;7.30;4.70;;;19.30;99.90;;;;;;5048360;28;20408;-65
2022/07/24 00:31:20;;;;;;;8.10;5.80;;;19.30;99.90;;;;;;5050925;28;20048;-63
2022/07/24 00:33:48;;;;;;;11.93;5.22;;;19.30;99.90;;;;;;5052765;28;20041;-61
2022/07/24 00:36:16;;;;;;;5.53;3.95;;;19.30;99.90;;;;;;5048649;28;20045;-63
2022/07/24 00:38:43;;;;;;;5.68;3.65;;;19.30;99.90;;;;;;5050559;28;20045;-63
2022/07/24 00:41:15;;;;;;;8.05;4.07;;;19.30;99.90;;;;;;5049538;28;20499;-63
2022/07/24 00:44:05;;;;;;;6.97;3.38;;;19.20;99.90;;;;;;5033033;28;20048;-64
2022/07/24 00:46:33;;;;;;;37.15;30.30;;;19.20;99.90;;;;;;5050544;28;20052;-65
2022/07/24 00:49:00;;;;;;;22.98;18.90;;;19.20;99.90;;;;;;5050350;28;20045;-63
2022/07/24 00:51:27;;;;;;;5.30;4.72;;;19.10;99.90;;;;;;5050992;28;20088;-63
2022/07/24 00:53:54;;;;;;;8.80;4.75;;;19.10;99.90;;;;;;5032717;28;20068;-64
2022/07/24 00:56:21;;;;;;;5.50;3.95;;;19.10;99.90;;;;;;5050434;28;20056;-64
2022/07/24 00:58:48;;;;;;;6.07;3.33;;;19.00;99.90;;;;;;5055816;28;20487;-63
2022/07/24 01:01:15;;;;;;;6.47;3.10;;;19.00;99.90;;;;;;5051622;28;20048;-63
2022/07/24 01:03:42;;;;;;;4.05;3.45;;;19.10;99.90;;;;;;5053352;28;20102;-63
2022/07/24 01:06:09;;;;;;;5.30;3.58;;;19.10;99.90;;;;;;5053602;28;20052;-63
2022/07/24 01:08:36;;;;;;;8.85;6.50;;;19.10;99.90;;;;;;5036985;28;20059;-63
2022/07/24 01:11:06;;;;;;;21.10;15.00;;;19.10;99.90;;;;;;5036872;28;20060;-63
2022/07/24 01:13:33;;;;;;;9.70;7.53;;;19.10;99.90;;;;;;5053176;28;20515;-64
2022/07/24 01:16:00;;;;;;;8.65;6.28;;;19.10;99.90;;;;;;5052796;28;20048;-67
2022/07/24 01:18:27;;;;;;;6.50;4.40;;;19.00;99.90;;;;;;5056409;28;20056;-66
2022/07/24 01:20:55;;;;;;;9.23;4.82;;;19.00;99.90;;;;;;5056441;28;20063;-70
2022/07/24 01:23:23;;;;;;;6.97;3.75;;;19.00;99.90;;;;;;5053677;28;20049;-70
2022/07/24 01:25:50;;;;;;;4.43;2.95;;;18.90;99.90;;;;;;5036606;28;20049;-70
2022/07/24 01:28:17;;;;;;;5.15;3.78;;;18.90;99.90;;;;;;5052585;28;20094;-70
2022/07/24 01:30:44;;;;;;;6.78;6.03;;;18.90;99.90;;;;;;5056016;28;20049;-70
2022/07/24 01:33:11;;;;;;;13.60;10.80;;;18.90;99.90;;;;;;5050427;28;20045;-70
2022/07/24 01:35:38;;;;;;;17.50;15.05;;;18.80;99.90;;;;;;5052908;28;20048;-70
2022/07/24 01:38:05;;;;;;;7.28;5.03;;;18.80;99.90;;;;;;5052826;28;20511;-69
2022/07/24 01:40:32;;;;;;;7.40;4.80;;;18.70;99.90;;;;;;5054274;28;20058;-70
2022/07/24 01:43:00;;;;;;;4.70;3.80;;;18.70;99.90;;;;;;5055592;28;20045;-70
2022/07/24 01:45:27;;;;;;;6.22;3.72;;;18.70;99.90;;;;;;5052658;28;20057;-70
2022/07/24 01:47:54;;;;;;;6.55;4.40;;;18.70;99.90;;;;;;5051339;28;20048;-68
2022/07/24 01:50:21;;;;;;;14.98;13.07;;;18.70;99.90;;;;;;5032207;28;20061;-67
2022/07/24 01:52:48;;;;;;;13.13;8.95;;;18.70;99.90;;;;;;5051864;28;20049;-63
2022/07/24 01:55:14;;;;;;;7.22;4.30;;;18.60;99.90;;;;;;5051791;28;20492;-69
2022/07/24 01:57:41;;;;;;;8.32;4.43;;;18.70;99.90;;;;;;5050202;28;20064;-69
2022/07/24 02:00:12;;;;;;;3.63;3.00;;;18.60;99.90;;;;;;5052071;28;20044;-69
2022/07/24 02:02:41;;;;;;;5.88;3.97;;;18.50;99.90;;;;;;5035485;28;20066;-69
2022/07/24 02:05:08;;;;;;;5.72;3.70;;;18.50;99.90;;;;;;5050549;28;20049;-69
2022/07/24 02:07:35;;;;;;;5.28;3.45;;;18.50;99.90;;;;;;5050539;28;20045;-68
2022/07/24 02:10:02;;;;;;;7.35;3.72;;;18.50;99.90;;;;;;5052079;28;20072;-69
2022/07/24 02:12:29;;;;;;;5.32;3.63;;;18.40;99.90;;;;;;5050160;28;20061;-69
2022/07/24 02:14:56;;;;;;;6.80;3.88;;;18.40;99.90;;;;;;5050696;28;20049;-69
2022/07/24 02:17:23;;;;;;;7.13;4.03;;;18.40;99.90;;;;;;5051482;28;20476;-69
2022/07/24 02:19:50;;;;;;;6.18;3.80;;;18.40;99.90;;;;;;5051401;28;20068;-68
2022/07/24 02:22:17;;;;;;;5.85;3.80;;;18.40;99.90;;;;;;5050177;28;20068;-69
2022/07/24 02:24:44;;;;;;;10.43;4.65;;;18.40;99.90;;;;;;5050257;28;20503;-69
2022/07/24 02:27:11;;;;;;;5.47;4.07;;;18.40;99.90;;;;;;5052093;28;20076;-69
2022/07/24 02:29:39;;;;;;;4.47;3.40;;;18.40;99.90;;;;;;5052701;28;20045;-69
2022/07/24 02:32:07;;;;;;;3.92;3.42;;;18.40;99.90;;;;;;5052485;28;20052;-69
2022/07/24 02:34:34;;;;;;;5.35;3.88;;;18.40;99.90;;;;;;5053761;28;20061;-69
2022/07/24 02:37:01;;;;;;;6.28;3.92;;;18.40;99.90;;;;;;5051690;28;20041;-68
2022/07/24 02:39:28;;;;;;;9.07;3.55;;;18.30;99.90;;;;;;5050814;28;20128;-69
2022/07/24 02:41:55;;;;;;;5.60;4.25;;;18.30;99.90;;;;;;5051587;28;20041;-69
2022/07/24 02:44:22;;;;;;;4.75;3.80;;;18.40;99.90;;;;;;5056326;28;20040;-69
2022/07/24 02:46:48;;;;;;;5.43;3.90;;;18.30;99.90;;;;;;5037285;28;20132;-69
2022/07/24 02:49:15;;;;;;;4.10;3.70;;;18.30;99.90;;;;;;5055058;28;20087;-69
2022/07/24 02:51:42;;;;;;;7.05;4.20;;;18.30;99.90;;;;;;5049686;28;20060;-69
2022/07/24 02:54:10;;;;;;;8.23;4.43;;;18.40;99.90;;;;;;5054013;28;20041;-69
2022/07/24 02:56:37;;;;;;;5.05;4.03;;;18.40;99.90;;;;;;5033763;28;20068;-69
2022/07/24 02:59:04;;;;;;;6.63;4.03;;;18.40;99.90;;;;;;5050568;28;20041;-69
2022/07/24 03:01:32;;;;;;;7.50;3.72;;;18.30;99.90;;;;;;5052162;28;20049;-69
2022/07/24 03:03:59;;;;;;;4.90;3.85;;;18.30;99.90;;;;;;5049493;28;20057;-69
2022/07/24 03:06:26;;;;;;;7.00;4.32;;;18.30;99.90;;;;;;5052181;28;20110;-69
2022/07/24 03:08:53;;;;;;;4.97;3.78;;;18.30;99.90;;;;;;5050929;28;20673;-69
2022/07/24 03:11:20;;;;;;;6.10;3.92;;;18.30;99.90;;;;;;5053260;28;20156;-69
2022/07/24 03:13:47;;;;;;;5.80;4.32;;;18.30;99.90;;;;;;5053752;28;20049;-69
2022/07/24 03:16:15;;;;;;;8.25;4.45;;;18.30;99.90;;;;;;5030557;28;20049;-69
2022/07/24 03:18:45;;;;;;;7.00;4.57;;;18.20;99.90;;;;;;5047844;28;20128;-69
2022/07/24 03:21:13;;;;;;;5.45;3.25;;;18.20;99.90;;;;;;5050206;28;20048;-69
2022/07/24 03:24:00;;;;;;;6.65;3.75;;;18.20;99.90;;;;;;5053825;28;20044;-69
2022/07/24 03:26:27;;;;;;;6.07;4.25;;;18.20;99.90;;;;;;5029005;28;20046;-69
2022/07/24 03:28:54;;;;;;;9.00;4.28;;;18.20;99.90;;;;;;5042660;28;20471;-69
2022/07/24 03:31:21;;;;;;;7.53;4.47;;;18.20;99.90;;;;;;5050047;28;20056;-69
2022/07/24 03:33:48;;;;;;;7.53;3.55;;;18.20;99.90;;;;;;5048509;28;20113;-69
2022/07/24 03:36:15;;;;;;;5.95;3.70;;;18.20;99.90;;;;;;5049896;28;20045;-69
2022/07/24 03:38:42;;;;;;;7.65;4.22;;;18.20;99.90;;;;;;5051047;28;20484;-69
2022/07/24 03:41:08;;;;;;;4.50;3.50;;;18.30;99.90;;;;;;5052092;28;20037;-69
2022/07/24 03:43:35;;;;;;;5.68;3.97;;;18.20;99.90;;;;;;5048446;28;20049;-69
2022/07/24 03:46:02;;;;;;;11.23;3.80;;;18.20;99.90;;;;;;5049848;28;20050;-69
2022/07/24 03:48:29;;;;;;;6.65;3.22;;;18.20;99.90;;;;;;5032627;28;20052;-69
2022/07/24 03:50:56;;;;;;;5.50;3.60;;;18.20;99.90;;;;;;5049613;28;20060;-69
2022/07/24 03:53:23;;;;;;;5.00;3.30;;;18.20;99.90;;;;;;5047623;28;20061;-69
2022/07/24 03:55:52;;;;;;;;;;;18.30;99.90;;;;;;5048929;28;20456;-69
2022/07/24 03:58:19;;;;;;;4.60;3.70;;;18.20;99.90;;;;;;5032851;28;19927;-69
2022/07/24 04:00:46;;;;;;;5.22;3.42;;;18.20;99.90;;;;;;5048951;28;20041;-68
2022/07/24 04:03:13;;;;;;;4.63;4.05;;;18.10;99.90;;;;;;5033873;28;20136;-69
2022/07/24 04:05:40;;;;;;;7.38;3.60;;;18.10;99.90;;;;;;5050510;28;20052;-68
2022/07/24 04:08:17;;;;;;;6.00;3.78;;;18.10;99.90;;;;;;5033293;28;20045;-69
2022/07/24 04:10:44;;;;;;;4.00;3.30;;;18.10;99.90;;;;;;5050544;28;20519;-68
2022/07/24 04:13:11;;;;;;;6.07;3.53;;;18.10;99.90;;;;;;5050500;28;20099;-69
2022/07/24 04:15:38;;;;;;;4.22;3.30;;;18.10;99.90;;;;;;5021382;28;20454;-69
2022/07/24 04:18:05;;;;;;;5.60;3.47;;;18.10;99.90;;;;;;5017579;28;20059;-69
2022/07/24 04:20:32;;;;;;;6.45;3.40;;;18.10;99.90;;;;;;5031235;28;20052;-69
2022/07/24 04:22:59;;;;;;;7.85;4.00;;;18.10;99.90;;;;;;5050479;28;20095;-69
2022/07/24 04:25:27;;;;;;;7.47;3.47;;;18.10;99.90;;;;;;5032571;28;20587;-69
2022/07/24 04:27:54;;;;;;;5.70;3.30;;;18.10;99.90;;;;;;5047139;28;20170;-69
2022/07/24 04:30:21;;;;;;;5.65;3.42;;;18.10;99.90;;;;;;5049244;28;20107;-69
2022/07/24 04:32:48;;;;;;;5.57;3.13;;;18.10;99.90;;;;;;5051006;28;20148;-69
2022/07/24 04:35:14;;;;;;;5.93;3.33;;;18.10;99.90;;;;;;5053464;28;20483;-69
2022/07/24 04:37:41;;;;;;;5.05;3.40;;;18.10;99.90;;;;;;5052813;28;20049;-69
2022/07/24 04:40:09;;;;;;;5.22;3.30;;;18.00;99.90;;;;;;5032239;28;20054;-68
2022/07/24 04:42:37;;;;;;;7.13;3.10;;;18.10;99.90;;;;;;5048358;28;20075;-69
2022/07/24 04:45:04;;;;;;;7.13;3.20;;;18.10;99.90;;;;;;5052810;28;20044;-69
2022/07/24 04:47:31;;;;;;;4.22;3.25;;;18.10;99.90;;;;;;5053261;28;20041;-69
2022/07/24 04:49:58;;;;;;;5.80;3.47;;;18.10;99.90;;;;;;5052492;28;20048;-69
2022/07/24 04:52:25;;;;;;;9.32;4.38;;;18.20;99.90;;;;;;5036483;28;20044;-69
2022/07/24 04:54:52;;;;;;;7.70;4.60;;;18.20;99.90;;;;;;5052927;28;20052;-69
2022/07/24 04:57:19;;;;;;;5.50;4.05;;;18.30;99.90;;;;;;5051315;28;20041;-69
2022/07/24 04:59:46;;;;;;;7.25;4.18;;;18.30;99.90;;;;;;5052853;28;20071;-69
2022/07/24 05:02:13;;;;;;;8.02;4.03;;;18.50;99.90;;;;;;5051525;28;20052;-69
2022/07/24 05:04:40;;;;;;;7.28;4.30;;;18.70;99.90;;;;;;5036101;28;20049;-69
2022/07/24 05:07:07;;;;;;;8.43;4.35;;;19.10;99.90;;;;;;5053839;28;20523;-68
2022/07/24 05:09:34;;;;;;;4.30;3.28;;;19.50;99.90;;;;;;5052172;28;20060;-68
2022/07/24 05:12:01;;;;;;;5.13;3.17;;;19.70;99.90;;;;;;5052111;28;20052;-69
2022/07/24 05:14:27;;;;;;;5.03;3.20;;;20.00;99.90;;;;;;5055536;28;20489;-69
2022/07/24 05:16:54;;;;;;;6.65;2.85;;;20.30;99.90;;;;;;5055283;28;20400;-69
2022/07/24 05:19:21;;;;;;;6.15;2.88;;;20.50;99.90;;;;;;5050410;28;20053;-69
2022/07/24 05:21:48;;;;;;;7.82;3.42;;;20.50;99.90;;;;;;5036229;28;20049;-69
2022/07/24 05:24:15;;;;;;;4.10;3.45;;;20.30;99.90;;;;;;5053073;28;20052;-69
2022/07/24 05:26:42;;;;;;;4.68;2.80;;;20.20;99.90;;;;;;5054249;28;20055;-69
2022/07/24 05:29:09;;;;;;;4.65;2.88;;;20.40;99.90;;;;;;5052799;28;20059;-69
2022/07/24 05:31:36;;;;;;;4.20;2.40;;;20.50;99.90;;;;;;5051493;28;20053;-69
2022/07/24 05:34:07;;;;;;;5.53;3.20;;;20.80;99.90;;;;;;5053023;28;20400;-68
2022/07/24 05:36:34;;;;;;;8.07;3.70;;;20.70;99.90;;;;;;5051015;28;20055;-69
2022/07/24 05:39:02;;;;;;;4.10;3.00;;;20.50;99.90;;;;;;5052063;28;20051;-68
2022/07/24 05:41:29;;;;;;;5.78;3.00;;;20.40;99.90;;;;;;5051443;28;20087;-68
2022/07/24 05:43:56;;;;;;;5.15;3.20;;;20.20;99.90;;;;;;5050389;28;20053;-68
2022/07/24 05:46:23;;;;;;;5.32;3.35;;;20.00;99.90;;;;;;5053802;28;20140;-68
2022/07/24 05:48:50;;;;;;;5.68;3.60;;;19.90;99.90;;;;;;5053174;28;20126;-69
2022/07/24 05:51:17;;;;;;;4.72;3.35;;;19.90;99.90;;;;;;5050478;28;20037;-69
2022/07/24 05:53:44;;;;;;;6.03;4.22;;;20.30;99.90;;;;;;5052502;28;20507;-69
2022/07/24 05:56:11;;;;;;;7.93;3.88;;;20.50;99.90;;;;;;5051595;28;20048;-69
2022/07/24 05:58:38;;;;;;;7.47;4.13;;;20.50;99.90;;;;;;5052734;28;20056;-69
2022/07/24 06:01:05;;;;;;;6.00;3.63;;;20.40;99.90;;;;;;5054508;28;20037;-73
2022/07/24 06:03:32;;;;;;;5.68;3.28;;;20.30;99.90;;;;;;5034617;28;20157;-69
2022/07/24 06:05:59;;;;;;;5.32;3.58;;;20.20;99.90;;;;;;5035194;28;20069;-69
2022/07/24 06:08:26;;;;;;;5.03;3.33;;;20.40;99.90;;;;;;5031985;28;20104;-69
2022/07/24 06:10:53;;;;;;;6.13;2.78;;;20.50;99.90;;;;;;5033596;28;20445;-69
2022/07/24 06:13:20;;;;;;;3.75;2.47;;;20.50;99.90;;;;;;5052241;28;20049;-69
2022/07/24 06:15:47;;;;;;;4.47;2.95;;;20.80;99.90;;;;;;5019783;28;20067;-69
2022/07/24 06:18:14;;;;;;;3.97;2.83;;;21.00;99.90;;;;;;5051429;28;20041;-69
2022/07/24 06:20:41;;;;;;;4.60;2.88;;;21.20;99.90;;;;;;5051272;28;20052;-69
2022/07/24 06:23:08;;;;;;;4.13;3.03;;;21.30;99.90;;;;;;5053654;28;20082;-69
2022/07/24 06:25:47;;;;;;;4.07;2.40;;;21.20;99.90;;;;;;5051530;28;20063;-69
2022/07/24 06:28:14;;;;;;;4.40;2.53;;;21.00;99.90;;;;;;5051816;28;20068;-68
2022/07/24 06:30:41;;;;;;;5.90;2.60;;;20.90;99.90;;;;;;5049696;28;20069;-68
2022/07/24 06:33:08;;;;;;;4.57;3.08;;;20.90;99.90;;;;;;5030380;28;20492;-69
2022/07/24 06:35:35;;;;;;;3.45;2.60;;;20.90;99.90;;;;;;5051467;28;20049;-69
2022/07/24 06:38:02;;;;;;;6.18;2.78;;;20.90;99.90;;;;;;5052260;28;20128;-68
2022/07/24 06:40:29;;;;;;;4.05;2.67;;;20.90;99.90;;;;;;5050512;28;20511;-69
2022/07/24 06:42:56;;;;;;;4.28;2.50;;;20.90;99.90;;;;;;5033150;28;20041;-69
2022/07/24 06:45:23;;;;;;;3.35;2.30;;;20.80;99.90;;;;;;5034319;28;20396;-70
2022/07/24 06:47:50;;;;;;;4.30;2.95;;;20.80;99.90;;;;;;5051214;28;20049;-69
2022/07/24 06:50:17;;;;;;;8.95;2.70;;;20.80;99.90;;;;;;5053598;28;20064;-68
2022/07/24 06:52:45;;;;;;;4.13;2.65;;;20.90;99.90;;;;;;5053820;28;20360;-69
2022/07/24 06:55:13;;;;;;;;;;;20.90;99.90;;;;;;5050364;28;20102;-68
2022/07/24 06:57:40;;;;;;;4.50;2.55;;;21.10;99.90;;;;;;5050669;28;19948;-69
2022/07/24 07:00:08;;;;;;;4.47;2.50;;;21.20;99.90;;;;;;5050253;28;20098;-69
2022/07/24 07:02:35;;;;;;;2.78;2.33;;;21.20;99.90;;;;;;5036604;28;20667;-69
2022/07/24 07:05:06;;;;;;;3.55;2.20;;;21.20;99.90;;;;;;5050873;28;20399;-68
2022/07/24 07:07:34;;;;;;;3.60;2.50;;;21.30;99.90;;;;;;5049555;28;20506;-69
2022/07/24 07:10:01;;;;;;;5.03;2.47;;;21.30;99.90;;;;;;5049007;28;20139;-69
2022/07/24 07:12:28;;;;;;;5.50;2.35;;;21.30;99.90;;;;;;5052023;28;20049;-69
2022/07/24 07:14:57;;;;;;;6.05;2.72;;;21.30;99.90;;;;;;5052808;28;20051;-69
2022/07/24 07:17:25;;;;;;;3.42;2.20;;;21.40;99.90;;;;;;5049426;28;20068;-68
2022/07/24 07:19:52;;;;;;;4.47;2.30;;;21.40;99.90;;;;;;5033759;28;20056;-69
2022/07/24 07:22:18;;;;;;;3.63;2.03;;;21.50;99.90;;;;;;5051166;28;20056;-69
2022/07/24 07:24:45;;;;;;;2.60;2.05;;;21.60;99.90;;;;;;5049007;28;20045;-69
2022/07/24 07:27:12;;;;;;;3.20;2.13;;;21.60;99.90;;;;;;5050659;28;20060;-69
2022/07/24 07:29:39;;;;;;;2.67;1.92;;;21.80;99.90;;;;;;5050106;28;20453;-69
2022/07/24 07:32:06;;;;;;;4.55;2.22;;;21.80;99.90;;;;;;5050820;28;20086;-69
2022/07/24 07:34:33;;;;;;;3.78;2.20;;;21.90;99.90;;;;;;5052347;28;20071;-69
2022/07/24 07:37:00;;;;;;;5.40;1.80;;;22.00;99.90;;;;;;5049663;28;20060;-69
2022/07/24 07:39:27;;;;;;;3.33;2.20;;;22.10;99.90;;;;;;5048551;28;20076;-69
2022/07/24 07:41:54;;;;;;;3.17;2.20;;;22.10;99.90;;;;;;5048926;28;20515;-69
2022/07/24 07:44:21;;;;;;;6.18;2.85;;;22.20;99.90;;;;;;5047870;28;20130;-69
2022/07/24 07:46:48;;;;;;;4.25;2.40;;;22.30;99.90;;;;;;5051922;28;20126;-69
2022/07/24 07:49:15;;;;;;;3.22;2.38;;;22.30;99.90;;;;;;5049221;28;20458;-69
2022/07/24 07:51:42;;;;;;;5.43;2.75;;;22.30;99.90;;;;;;5049989;28;20075;-69
2022/07/24 07:54:09;;;;;;;3.58;2.50;;;22.40;99.90;;;;;;5048931;28;20079;-69
2022/07/24 07:56:36;;;;;;;4.70;2.30;;;22.50;99.90;;;;;;5051250;28;20132;-69
2022/07/24 07:59:03;;;;;;;3.97;2.13;;;22.60;99.90;;;;;;5020828;28;20048;-69
2022/07/24 08:01:30;;;;;;;3.20;2.00;;;22.70;99.90;;;;;;5052500;28;20045;-69
2022/07/24 08:03:57;;;;;;;3.20;2.25;;;22.90;99.90;;;;;;5048627;28;20060;-69
2022/07/24 08:06:24;;;;;;;6.00;2.22;;;22.90;99.90;;;;;;5052019;28;20414;-69
2022/07/24 08:08:51;;;;;;;3.33;2.28;;;23.00;99.90;;;;;;5053555;28;20049;-69
2022/07/24 08:11:18;;;;;;;4.50;2.60;;;23.00;99.90;;;;;;5036903;28;20366;-69
2022/07/24 08:13:45;;;;;;;7.32;3.92;;;23.00;99.90;;;;;;5056941;28;20472;-69
2022/07/24 08:16:12;;;;;;;3.95;2.63;;;23.00;99.90;;;;;;5054897;28;20068;-69
2022/07/24 08:18:40;;;;;;;3.50;2.22;;;23.10;99.90;;;;;;5057303;28;20052;-69
2022/07/24 08:21:07;;;;;;;3.83;2.22;;;23.00;99.90;;;;;;5028017;28;20068;-69
2022/07/24 08:23:34;;;;;;;4.30;2.55;;;23.10;99.90;;;;;;5044512;28;20053;-69
2022/07/24 08:26:00;;;;;;;3.42;2.13;;;23.10;99.90;;;;;;5052695;28;20052;-69
2022/07/24 08:28:27;;;;;;;5.05;2.22;;;23.10;99.90;;;;;;5055006;28;20044;-69
2022/07/24 08:30:54;;;;;;;4.25;2.40;;;23.20;99.90;;;;;;5052733;28;20049;-69
2022/07/24 08:33:21;;;;;;;3.50;2.40;;;23.20;99.90;;;;;;5051959;28;20121;-69
2022/07/24 08:35:48;;;;;;;3.30;2.20;;;23.30;99.90;;;;;;5051162;28;20048;-69
2022/07/24 08:38:15;;;;;;;3.00;2.35;;;23.40;99.90;;;;;;5053919;28;20557;-71
2022/07/24 08:40:42;;;;;;;3.08;2.25;;;23.50;99.90;;;;;;5034112;28;20056;-68
2022/07/24 08:43:09;;;;;;;3.10;2.00;;;23.70;99.90;;;;;;5050520;28;20049;-71
2022/07/24 08:45:40;;;;;;;3.13;2.60;;;23.80;99.90;;;;;;5052172;28;20448;-69
2022/07/24 08:48:08;;;;;;;3.13;2.60;;;23.70;99.90;;;;;;5024339;28;20059;-70
2022/07/24 08:50:38;;;;;;;5.27;2.57;;;23.70;99.90;;;;;;5053972;28;20053;-69
2022/07/24 08:53:05;;;;;;;4.43;3.15;;;23.70;99.90;;;;;;5036193;28;20051;-69
2022/07/24 08:55:33;;;;;;;3.15;2.20;;;23.80;99.90;;;;;;5052819;28;20113;-69
2022/07/24 08:58:00;;;;;;;3.20;2.47;;;23.70;99.90;;;;;;5031909;28;20057;-70
2022/07/24 09:00:29;;;;;;;3.25;2.30;;;23.80;99.90;;;;;;5058601;28;20051;-69
2022/07/24 09:02:56;;;;;;;3.83;2.70;;;23.80;99.90;;;;;;5051668;28;20552;-70
2022/07/24 09:05:23;;;;;;;3.35;2.67;;;23.80;99.90;;;;;;5055752;28;20572;-69
2022/07/24 09:08:05;;;;;;;3.23;2.30;;;23.90;99.90;;;;;;5053363;28;20098;-68
2022/07/24 09:10:33;;;;;;;4.43;2.40;;;23.90;99.90;;;;;;5053511;28;20785;-68
2022/07/24 09:13:12;;;;;;;2.92;2.53;;;24.00;99.90;;;;;;5055017;28;20424;-69
2022/07/24 09:15:46;;;;;;;3.35;2.35;;;24.10;99.90;;;;;;5035786;28;20041;-70
2022/07/24 09:18:33;;;;;;;4.80;2.90;;;24.20;99.90;;;;;;5035001;28;20041;-67
2022/07/24 09:21:12;;;;;;;4.55;3.25;;;24.10;99.90;;;;;;5054126;28;20049;-65
2022/07/24 09:23:39;;;;;;;3.65;2.80;;;24.10;99.90;;;;;;5060265;28;20067;-68
2022/07/24 09:26:06;;;;;;;3.67;2.50;;;24.10;99.90;;;;;;5056415;28;20485;-68
2022/07/24 09:28:51;;;;;;;4.30;2.40;;;24.20;99.90;;;;;;5052137;28;20049;-68
2022/07/24 09:31:18;;;;;;;3.33;2.63;;;24.30;99.90;;;;;;5052425;28;20080;-68
2022/07/24 09:33:45;;;;;;;5.15;2.47;;;24.40;99.90;;;;;;5033741;28;20053;-68
2022/07/24 09:36:13;;;;;;;3.10;2.17;;;24.50;99.90;;;;;;5035858;28;20051;-68
2022/07/24 09:38:50;;;;;;;5.25;2.90;;;24.60;99.90;;;;;;5051902;28;20789;-68
2022/07/24 09:41:23;;;;;;;3.75;2.53;;;24.60;99.90;;;;;;5053101;28;20140;-68
2022/07/24 09:44:00;;;;;;;5.63;2.53;;;24.60;99.90;;;;;;5051150;28;20045;-68
2022/07/24 09:46:28;;;;;;;5.75;2.50;;;24.60;99.90;;;;;;5036328;28;20053;-68
2022/07/24 09:48:57;;;;;;;3.65;2.55;;;24.60;99.90;;;;;;5035024;28;20048;-68
2022/07/24 09:51:26;;;;;;;3.22;2.70;;;24.60;99.90;;;;;;5035188;28;20088;-66
2022/07/24 09:54:00;;;;;;;;;;;24.60;99.90;;;;;;5054262;28;20106;-68
2022/07/24 09:56:27;;;;;;;9.60;8.60;;;24.60;99.90;;;;;;5052978;28;19947;-68
2022/07/24 09:58:55;;;;;;;3.83;3.10;;;24.60;99.90;;;;;;5034259;28;20095;-65
2022/07/24 10:01:25;;;;;;;4.07;2.90;;;24.60;99.90;;;;;;5035446;28;20053;-70
2022/07/24 10:03:53;;;;;;;6.00;2.78;;;24.60;99.90;;;;;;5051545;28;20163;-66
2022/07/24 10:06:21;;;;;;;4.82;4.25;;;24.60;99.90;;;;;;5018528;28;20052;-73
2022/07/24 10:08:49;;;;;;;12.48;9.50;;;24.60;99.90;;;;;;5051170;28;20083;-72
2022/07/24 10:11:17;;;;;;;6.28;4.47;;;24.60;99.90;;;;;;5051894;28;20052;-64
2022/07/24 10:13:47;;;;;;;3.83;2.80;;;24.70;99.90;;;;;;5050369;28;20123;-73
2022/07/24 10:16:14;;;;;;;3.55;2.80;;;24.70;99.90;;;;;;5034485;28;20056;-69
2022/07/24 10:18:46;;;;;;;6.55;3.28;;;24.80;99.90;;;;;;5050589;28;20041;-67
2022/07/24 10:21:24;;;;;;;4.97;2.83;;;24.90;99.90;;;;;;5052488;28;20045;-64
2022/07/24 10:24:06;;;;;;;3.58;2.78;;;25.00;99.80;;;;;;5051498;28;20041;-67
2022/07/24 10:26:50;;;;;;;7.15;3.38;;;25.00;99.70;;;;;;5051509;28;20589;-66
2022/07/24 10:29:17;;;;;;;16.67;15.02;;;25.10;99.00;;;;;;5049752;28;20064;-66
2022/07/24 10:31:46;;;;;;;48.25;43.33;;;25.10;99.20;;;;;;5050534;28;20131;-76
2022/07/24 10:34:41;;;;;;;9.52;7.72;;;25.20;97.30;;;;;;5051582;28;20045;-72
2022/07/24 10:37:25;;;;;;;5.15;4.22;;;25.30;96.90;;;;;;5051207;28;20052;-67
2022/07/24 10:40:14;;;;;;;6.75;4.10;;;25.30;97.70;;;;;;5051007;28;20053;-64
2022/07/24 10:42:59;;;;;;;;;;;25.40;96.10;;;;;;5050424;28;20063;-68
2022/07/24 10:45:29;;;;;;;26.58;6.05;;;25.40;96.80;;;;;;5050514;28;19921;-66
2022/07/24 10:47:57;;;;;;;4.88;3.22;;;25.50;97.90;;;;;;5047040;28;20135;-64
2022/07/24 10:50:58;;;;;;;3.72;2.70;;;25.50;96.50;;;;;;5023083;28;20092;-66
2022/07/24 10:53:26;;;;;;;4.55;2.70;;;25.50;95.80;;;;;;5032375;28;20103;-65
2022/07/24 10:56:12;;;;;;;9.30;8.40;;;25.70;96.10;;;;;;5033275;28;20049;-69
2022/07/24 10:58:56;;;;;;;6.18;5.57;;;25.80;95.00;;;;;;5048960;28;20753;-68
2022/07/24 11:01:32;;;;;;;5.47;3.83;;;25.90;94.60;;;;;;5049920;28;20396;-68
2022/07/24 11:04:00;;;;;;;3.63;2.78;;;26.00;93.60;;;;;;5033977;28;20459;-68
2022/07/24 11:06:40;;;;;;;3.37;2.60;;;26.00;93.60;;;;;;5032821;28;20103;-68
2022/07/24 11:09:07;;;;;;;4.78;2.55;;;25.90;93.10;;;;;;5051965;28;20764;-66
2022/07/24 11:11:39;;;;;;;4.97;2.40;;;25.90;93.60;;;;;;5020784;28;20547;-66
2022/07/24 11:14:08;;;;;;;3.80;2.60;;;26.00;93.60;;;;;;5025480;28;20416;-66
2022/07/24 11:16:35;;;;;;;4.85;2.92;;;26.10;93.20;;;;;;5050272;28;20179;-65
2022/07/24 11:19:02;;;;;;;2.97;2.17;;;26.20;92.70;;;;;;5050332;28;20056;-65
2022/07/24 11:21:43;;;;;;;5.15;2.78;;;26.10;93.20;;;;;;5050361;28;20052;-66
2022/07/24 11:24:16;;;;;;;3.00;2.45;;;26.10;93.00;;;;;;5030232;28;20041;-66
2022/07/24 11:26:57;;;;;;;4.72;4.13;;;26.20;92.60;;;;;;5031730;28;20061;-67
2022/07/24 11:29:37;;;;;;;5.13;3.05;;;26.30;92.40;;;;;;5049030;28;20064;-69
2022/07/24 11:32:17;;;;;;;4.85;2.40;;;26.40;93.20;;;;;;5051257;28;20507;-69
2022/07/24 11:34:49;;;;;;;3.05;2.33;;;26.40;92.40;;;;;;5050268;28;20049;-67
2022/07/24 11:37:16;;;;;;;5.68;2.80;;;26.50;92.50;;;;;;5032925;28;20049;-66
2022/07/24 11:39:44;;;;;;;3.90;2.70;;;26.60;92.10;;;;;;5048858;28;20571;-67
2022/07/24 11:42:13;;;;;;;4.80;2.50;;;26.60;92.10;;;;;;5049462;28;20049;-66
2022/07/24 11:44:42;;;;;;;3.17;2.40;;;26.70;92.90;;;;;;5043120;28;20321;-68
2022/07/24 11:47:13;;;;;;;5.57;2.72;;;26.70;92.60;;;;;;5052197;28;20488;-69
2022/07/24 11:50:00;;;;;;;3.35;2.20;;;26.80;92.30;;;;;;5049523;28;20408;-68
2022/07/24 11:52:33;;;;;;;5.97;2.65;;;27.10;92.60;;;;;;5035728;28;20041;-68
2022/07/24 11:55:02;;;;;;;4.25;2.50;;;27.30;91.50;;;;;;5050729;28;20049;-67
2022/07/24 11:57:33;;;;;;;4.03;2.70;;;27.30;90.50;;;;;;5049111;28;20045;-68
2022/07/24 12:00:27;;;;;;;4.13;2.38;;;27.20;90.40;;;;;;5055086;28;20525;-68
2022/07/24 12:03:00;;;;;;;4.10;2.35;;;27.10;90.20;;;;;;5049626;28;20053;-68
2022/07/24 12:05:37;;;;;;;4.45;2.70;;;27.10;89.40;;;;;;5033829;28;20135;-67
2022/07/24 12:08:14;;;;;;;3.58;2.30;;;27.20;89.30;;;;;;5029896;28;20049;-69
2022/07/24 12:10:41;;;;;;;4.13;2.53;;;27.30;88.00;;;;;;5050187;28;20654;-69
2022/07/24 12:13:08;;;;;;;6.47;2.30;;;27.50;87.70;;;;;;5050095;28;20075;-68
2022/07/24 12:15:37;;;;;;;3.67;2.22;;;27.50;86.70;;;;;;5032500;28;20049;-67
2022/07/24 12:18:07;;;;;;;;;;;27.40;85.40;;;;;;5048809;28;20052;-68
2022/07/24 12:20:36;;;;;;;3.47;2.45;;;27.30;85.80;;;;;;5049277;28;19928;-67
2022/07/24 12:23:05;;;;;;;3.15;2.10;;;27.20;86.90;;;;;;5051263;28;20961;-71
2022/07/24 12:25:32;;;;;;;3.08;2.28;;;27.20;86.30;;;;;;5048930;28;20045;-68
2022/07/24 12:28:07;;;;;;;4.70;2.33;;;27.10;86.10;;;;;;5033216;28;20136;-66
2022/07/24 12:30:45;;;;;;;3.95;2.03;;;27.00;85.80;;;;;;5049728;28;20052;-67
2022/07/24 12:33:12;;;;;;;6.28;4.82;;;26.90;86.80;;;;;;5047305;28;20037;-67
2022/07/24 12:35:54;;;;;;;5.45;3.10;;;27.00;86.20;;;;;;5049317;28;20318;-65
2022/07/24 12:38:28;;;;;;;3.40;2.40;;;27.00;86.30;;;;;;5042690;28;20049;-67
2022/07/24 12:41:04;;;;;;;5.88;2.83;;;27.10;86.90;;;;;;5024905;28;20417;-65
2022/07/24 12:43:32;;;;;;;5.63;4.35;;;27.30;85.60;;;;;;5049346;28;20080;-70
2022/07/24 12:46:09;;;;;;;4.22;3.22;;;27.30;86.50;;;;;;5049057;28;20059;-66
2022/07/24 12:48:36;;;;;;;3.67;2.58;;;27.40;85.50;;;;;;5048702;28;20416;-66
2022/07/24 12:51:10;;;;;;;3.28;1.90;;;27.60;84.90;;;;;;5032385;28;20167;-71
2022/07/24 12:53:41;;;;;;;4.22;1.80;;;27.80;82.70;;;;;;5031844;28;20053;-67
2022/07/24 12:56:14;;;;;;;5.70;2.55;;;27.80;83.50;;;;;;5050820;28;20041;-69
2022/07/24 12:58:48;;;;;;;4.80;2.42;;;27.70;83.20;;;;;;5056218;28;20127;-67